createdAt,value
2022-08-31T00:00:35.699Z,17.84
2022-08-31T00:01:35.701Z,17.81
2022-08-31T00:02:35.733Z,17.80
2022-08-31T00:03:35.689Z,17.92
2022-08-31T00:04:35.703Z,17.84
2022-08-31T00:05:35.630Z,17.77
2022-08-31T00:06:35.629Z,17.77
2022-08-31T00:07:35.643Z,17.74
2022-08-31T00:08:35.633Z,17.76
2022-08-31T00:09:35.598Z,17.63
2022-08-31T00:10:37.109Z,17.68
2022-08-31T00:11:35.579Z,17.70
2022-08-31T00:12:35.567Z,17.62
2022-08-31T00:13:35.924Z,17.65
2022-08-31T00:14:35.535Z,17.65
2022-08-31T00:15:35.574Z,17.66
2022-08-31T00:16:35.558Z,17.68
2022-08-31T00:17:35.512Z,17.68
2022-08-31T00:18:35.503Z,17.70
2022-08-31T00:19:35.508Z,17.71
2022-08-31T00:20:35.470Z,17.49
2022-08-31T00:21:35.486Z,17.53
2022-08-31T00:22:35.445Z,17.58
2022-08-31T00:23:36.380Z,17.51
2022-08-31T00:24:35.444Z,17.40
2022-08-31T00:25:35.429Z,17.49
2022-08-31T00:26:35.410Z,17.49
2022-08-31T00:27:35.401Z,17.45
2022-08-31T00:28:35.388Z,17.49
2022-08-31T00:29:35.380Z,17.47
2022-08-31T00:30:35.383Z,17.39
2022-08-31T00:31:35.419Z,17.42
2022-08-31T00:32:35.333Z,17.39
2022-08-31T00:33:35.878Z,17.49
2022-08-31T00:34:35.316Z,17.54
2022-08-31T00:35:35.314Z,17.51
2022-08-31T00:36:35.316Z,17.43
2022-08-31T00:37:35.289Z,17.46
2022-08-31T00:38:35.288Z,17.43
2022-08-31T00:39:35.265Z,17.53
2022-08-31T00:40:44.240Z,17.43
2022-08-31T00:41:36.266Z,17.42
2022-08-31T00:42:35.231Z,17.51
2022-08-31T00:43:35.219Z,17.42
2022-08-31T00:44:35.213Z,17.36
2022-08-31T00:45:35.259Z,17.32
2022-08-31T00:46:35.176Z,17.43
2022-08-31T00:47:35.193Z,17.33
2022-08-31T00:48:35.169Z,17.27
2022-08-31T00:49:35.149Z,17.21
2022-08-31T00:50:35.152Z,17.15
2022-08-31T00:51:35.129Z,17.18
2022-08-31T00:52:37.803Z,17.14
2022-08-31T00:53:35.112Z,17.14
2022-08-31T00:54:35.102Z,17.21
2022-08-31T00:55:35.088Z,17.14
2022-08-31T00:56:35.084Z,17.20
2022-08-31T00:57:35.080Z,17.15
2022-08-31T00:58:35.048Z,17.14
2022-08-31T00:59:35.886Z,17.14
2022-08-31T01:00:35.032Z,17.18
2022-08-31T01:01:35.089Z,17.15
2022-08-31T01:02:35.449Z,17.09
2022-08-31T01:03:35.001Z,17.07
2022-08-31T01:04:34.981Z,17.09
2022-08-31T01:05:34.986Z,17.15
2022-08-31T01:06:34.971Z,17.07
2022-08-31T01:07:34.954Z,17.15
2022-08-31T01:08:34.966Z,17.05
2022-08-31T01:09:34.932Z,17.05
2022-08-31T01:10:34.919Z,17.10
2022-08-31T01:11:34.921Z,17.07
2022-08-31T01:12:35.880Z,17.07
2022-08-31T01:13:34.915Z,17.14
2022-08-31T01:14:35.380Z,17.06
2022-08-31T01:15:34.870Z,17.07
2022-08-31T01:16:34.915Z,17.00
2022-08-31T01:17:34.841Z,16.98
2022-08-31T01:18:34.835Z,17.07
2022-08-31T01:19:34.937Z,17.06
2022-08-31T01:20:41.374Z,17.10
2022-08-31T01:21:35.803Z,17.06
2022-08-31T01:22:34.786Z,16.95
2022-08-31T01:23:34.781Z,16.95
2022-08-31T01:24:34.760Z,16.99
2022-08-31T01:25:34.778Z,17.00
2022-08-31T01:26:35.380Z,16.96
2022-08-31T01:27:34.734Z,16.81
2022-08-31T01:28:34.727Z,16.82
2022-08-31T01:29:37.413Z,16.96
2022-08-31T01:30:34.719Z,16.95
2022-08-31T01:31:34.794Z,16.98
2022-08-31T01:32:34.675Z,16.99
2022-08-31T01:33:37.391Z,16.84
2022-08-31T01:34:34.646Z,16.84
2022-08-31T01:35:37.392Z,16.85
2022-08-31T01:36:34.914Z,16.91
2022-08-31T01:37:34.624Z,16.98
2022-08-31T01:38:34.604Z,16.92
2022-08-31T01:39:34.608Z,16.90
2022-08-31T01:40:34.687Z,16.82
2022-08-31T01:41:41.401Z,16.78
2022-08-31T01:42:34.645Z,16.81
2022-08-31T01:43:34.562Z,16.72
2022-08-31T01:44:34.540Z,16.75
2022-08-31T01:45:34.537Z,16.70
2022-08-31T01:46:34.557Z,16.77
2022-08-31T01:47:34.500Z,16.72
2022-08-31T01:48:34.527Z,16.66
2022-08-31T01:49:37.396Z,16.69
2022-08-31T01:50:34.479Z,16.62
2022-08-31T01:51:35.391Z,16.54
2022-08-31T01:52:34.449Z,16.50
2022-08-31T01:53:34.433Z,16.44
2022-08-31T01:54:36.448Z,16.42
2022-08-31T01:55:34.414Z,16.44
2022-08-31T01:56:34.412Z,16.42
2022-08-31T01:57:35.395Z,16.54
2022-08-31T01:58:34.415Z,16.54
2022-08-31T01:59:34.367Z,16.36
2022-08-31T02:00:34.378Z,16.44
2022-08-31T02:01:34.711Z,16.41
2022-08-31T02:02:34.405Z,16.34
2022-08-31T02:03:34.331Z,16.33
2022-08-31T02:04:34.450Z,16.37
2022-08-31T02:05:34.302Z,16.45
2022-08-31T02:06:34.320Z,16.37
2022-08-31T02:07:34.287Z,16.30
2022-08-31T02:08:34.285Z,16.36
2022-08-31T02:09:34.253Z,16.33
2022-08-31T02:10:34.277Z,16.41
2022-08-31T02:11:34.236Z,16.45
2022-08-31T02:12:40.899Z,16.54
2022-08-31T02:13:34.217Z,16.54
2022-08-31T02:14:34.436Z,16.44
2022-08-31T02:15:34.892Z,16.41
2022-08-31T02:16:34.312Z,16.52
2022-08-31T02:17:36.887Z,16.51
2022-08-31T02:18:34.161Z,16.41
2022-08-31T02:19:34.147Z,16.42
2022-08-31T02:20:34.906Z,16.29
2022-08-31T02:21:34.122Z,16.29
2022-08-31T02:22:34.431Z,16.41
2022-08-31T02:23:34.125Z,16.36
2022-08-31T02:24:34.094Z,16.34
2022-08-31T02:25:34.088Z,16.23
2022-08-31T02:26:36.898Z,16.29
2022-08-31T02:27:34.084Z,16.16
2022-08-31T02:28:34.067Z,16.25
2022-08-31T02:29:34.036Z,16.22
2022-08-31T02:30:34.021Z,16.17
2022-08-31T02:31:34.067Z,16.16
2022-08-31T02:32:34.020Z,16.17
2022-08-31T02:33:36.898Z,16.17
2022-08-31T02:34:33.984Z,16.13
2022-08-31T02:35:33.953Z,16.22
2022-08-31T02:36:35.777Z,16.07
2022-08-31T02:37:33.953Z,16.11
2022-08-31T02:38:33.951Z,16.10
2022-08-31T02:39:33.932Z,16.07
2022-08-31T02:40:33.950Z,15.98
2022-08-31T02:41:33.895Z,15.91
2022-08-31T02:42:40.849Z,15.92
2022-08-31T02:43:34.895Z,15.89
2022-08-31T02:44:33.902Z,15.86
2022-08-31T02:45:33.843Z,15.84
2022-08-31T02:46:33.859Z,15.74
2022-08-31T02:47:33.825Z,15.73
2022-08-31T02:48:33.824Z,15.76
2022-08-31T02:49:33.801Z,15.73
2022-08-31T02:50:33.822Z,15.76
2022-08-31T02:51:33.773Z,15.74
2022-08-31T02:52:33.930Z,15.77
2022-08-31T02:53:33.763Z,15.67
2022-08-31T02:54:33.737Z,15.74
2022-08-31T02:55:33.770Z,15.60
2022-08-31T02:56:33.729Z,15.70
2022-08-31T02:57:33.718Z,15.74
2022-08-31T02:58:33.702Z,15.70
2022-08-31T02:59:33.700Z,15.76
2022-08-31T03:00:33.681Z,15.76
2022-08-31T03:01:34.024Z,15.76
2022-08-31T03:02:33.858Z,15.71
2022-08-31T03:03:36.402Z,15.76
2022-08-31T03:04:33.663Z,15.74
2022-08-31T03:05:33.623Z,15.71
2022-08-31T03:06:33.618Z,15.70
2022-08-31T03:07:33.650Z,15.71
2022-08-31T03:08:36.401Z,15.68
2022-08-31T03:09:33.587Z,15.67
2022-08-31T03:10:33.577Z,15.64
2022-08-31T03:11:33.581Z,15.70
2022-08-31T03:12:33.547Z,15.62
2022-08-31T03:13:33.543Z,15.64
2022-08-31T03:14:33.542Z,15.71
2022-08-31T03:15:33.541Z,15.60
2022-08-31T03:16:33.499Z,15.60
2022-08-31T03:17:36.400Z,15.64
2022-08-31T03:18:33.514Z,15.51
2022-08-31T03:19:33.472Z,15.60
2022-08-31T03:20:34.506Z,15.53
2022-08-31T03:21:33.447Z,15.55
2022-08-31T03:22:33.465Z,15.55
2022-08-31T03:23:33.427Z,15.56
2022-08-31T03:24:33.416Z,15.56
2022-08-31T03:25:33.403Z,15.55
2022-08-31T03:26:33.420Z,15.51
2022-08-31T03:27:33.386Z,15.49
2022-08-31T03:28:33.442Z,15.49
2022-08-31T03:29:33.358Z,15.52
2022-08-31T03:30:33.354Z,15.49
2022-08-31T03:31:33.374Z,15.43
2022-08-31T03:32:33.330Z,15.37
2022-08-31T03:33:33.428Z,15.44
2022-08-31T03:34:33.314Z,15.44
2022-08-31T03:35:33.287Z,15.46
2022-08-31T03:36:33.285Z,15.34
2022-08-31T03:37:33.276Z,15.20
2022-08-31T03:38:33.277Z,15.22
2022-08-31T03:39:33.289Z,15.20
2022-08-31T03:40:33.264Z,15.18
2022-08-31T03:41:33.258Z,15.20
2022-08-31T03:42:33.316Z,15.19
2022-08-31T03:43:33.217Z,15.11
2022-08-31T03:44:33.319Z,15.09
2022-08-31T03:45:33.215Z,15.16
2022-08-31T03:46:54.187Z,15.15
2022-08-31T03:47:33.168Z,15.13
2022-08-31T03:48:33.153Z,15.07
2022-08-31T03:49:33.140Z,15.18
2022-08-31T03:50:33.153Z,15.22
2022-08-31T03:51:33.120Z,15.12
2022-08-31T03:52:33.139Z,15.11
2022-08-31T03:53:33.091Z,15.18
2022-08-31T03:54:33.086Z,15.11
2022-08-31T03:55:33.909Z,15.07
2022-08-31T03:56:33.093Z,14.98
2022-08-31T03:57:33.075Z,15.13
2022-08-31T03:58:33.049Z,15.01
2022-08-31T03:59:33.030Z,14.98
2022-08-31T04:00:47.906Z,15.00
2022-08-31T04:01:33.074Z,15.00
2022-08-31T04:02:37.497Z,15.00
2022-08-31T04:03:33.906Z,14.98
2022-08-31T04:04:32.992Z,15.00
2022-08-31T04:05:35.908Z,15.05
2022-08-31T04:06:32.962Z,15.01
2022-08-31T04:07:42.086Z,15.00
2022-08-31T04:08:33.926Z,15.00
2022-08-31T04:09:32.924Z,14.94
2022-08-31T04:10:32.921Z,14.90
2022-08-31T04:11:44.575Z,14.94
2022-08-31T04:12:33.942Z,14.85
2022-08-31T04:13:32.902Z,14.85
2022-08-31T04:14:35.415Z,14.82
2022-08-31T04:15:35.461Z,14.83
2022-08-31T04:16:32.840Z,14.79
2022-08-31T04:17:35.417Z,14.82
2022-08-31T04:18:32.843Z,14.80
2022-08-31T04:19:32.834Z,14.75
2022-08-31T04:20:32.818Z,14.78
2022-08-31T04:21:32.793Z,14.72
2022-08-31T04:22:32.777Z,14.72
2022-08-31T04:23:32.772Z,14.64
2022-08-31T04:24:32.937Z,14.72
2022-08-31T04:25:32.768Z,14.79
2022-08-31T04:26:32.738Z,14.71
2022-08-31T04:27:32.726Z,14.75
2022-08-31T04:28:32.729Z,14.74
2022-08-31T04:29:34.769Z,14.80
2022-08-31T04:30:32.686Z,14.71
2022-08-31T04:31:32.743Z,14.69
2022-08-31T04:32:32.675Z,14.71
2022-08-31T04:33:33.414Z,14.72
2022-08-31T04:34:32.675Z,14.71
2022-08-31T04:35:32.639Z,14.78
2022-08-31T04:36:32.634Z,14.67
2022-08-31T04:37:32.632Z,14.79
2022-08-31T04:38:32.599Z,14.72
2022-08-31T04:39:32.890Z,14.79
2022-08-31T04:40:32.614Z,14.75
2022-08-31T04:41:32.589Z,14.75
2022-08-31T04:42:32.547Z,14.75
2022-08-31T04:43:32.550Z,14.78
2022-08-31T04:44:35.407Z,14.72
2022-08-31T04:45:32.584Z,14.72
2022-08-31T04:46:32.505Z,14.80
2022-08-31T04:47:32.556Z,14.85
2022-08-31T04:48:32.490Z,14.78
2022-08-31T04:49:32.492Z,14.72
2022-08-31T04:50:32.476Z,14.80
2022-08-31T04:51:35.443Z,14.75
2022-08-31T04:52:32.442Z,14.82
2022-08-31T04:53:32.466Z,14.82
2022-08-31T04:54:32.425Z,14.75
2022-08-31T04:55:34.911Z,14.78
2022-08-31T04:56:32.407Z,14.79
2022-08-31T04:57:32.389Z,14.90
2022-08-31T04:58:34.915Z,14.87
2022-08-31T04:59:32.394Z,14.78
2022-08-31T05:00:32.347Z,14.86
2022-08-31T05:01:36.331Z,14.85
2022-08-31T05:02:33.542Z,14.93
2022-08-31T05:03:32.923Z,14.93
2022-08-31T05:04:38.909Z,14.94
2022-08-31T05:05:32.445Z,14.87
2022-08-31T05:06:32.923Z,14.95
2022-08-31T05:07:32.281Z,14.95
2022-08-31T05:08:32.268Z,15.00
2022-08-31T05:09:32.917Z,14.94
2022-08-31T05:10:32.446Z,14.95
2022-08-31T05:11:32.244Z,14.94
2022-08-31T05:12:32.242Z,15.01
2022-08-31T05:13:32.207Z,14.97
2022-08-31T05:14:32.191Z,14.91
2022-08-31T05:15:32.242Z,14.95
2022-08-31T05:16:34.933Z,14.95
2022-08-31T05:17:32.182Z,14.93
2022-08-31T05:18:32.182Z,14.95
2022-08-31T05:19:32.204Z,14.79
2022-08-31T05:20:32.132Z,14.90
2022-08-31T05:21:32.129Z,14.93
2022-08-31T05:22:32.116Z,14.87
2022-08-31T05:23:32.124Z,14.98
2022-08-31T05:24:32.088Z,15.01
2022-08-31T05:25:32.094Z,15.00
2022-08-31T05:26:32.075Z,15.00
2022-08-31T05:27:32.072Z,14.87
2022-08-31T05:28:33.073Z,14.93
2022-08-31T05:29:32.029Z,14.80
2022-08-31T05:30:32.084Z,14.66
2022-08-31T05:31:33.049Z,14.74
2022-08-31T05:32:32.001Z,14.74
2022-08-31T05:33:32.018Z,14.69
2022-08-31T05:34:32.007Z,14.85
2022-08-31T05:35:32.914Z,14.93
2022-08-31T05:36:31.955Z,14.85
2022-08-31T05:37:31.954Z,14.98
2022-08-31T05:38:31.959Z,15.07
2022-08-31T05:39:31.927Z,15.09
2022-08-31T05:40:32.469Z,15.01
2022-08-31T05:41:31.903Z,15.04
2022-08-31T05:42:31.910Z,15.04
2022-08-31T05:43:31.950Z,15.00
2022-08-31T05:44:34.414Z,15.05
2022-08-31T05:45:31.855Z,15.00
2022-08-31T05:46:31.858Z,15.00
2022-08-31T05:47:31.830Z,14.98
2022-08-31T05:48:31.847Z,15.07
2022-08-31T05:49:32.663Z,15.03
2022-08-31T05:50:31.800Z,14.98
2022-08-31T05:51:34.912Z,14.98
2022-08-31T05:52:33.416Z,14.90
2022-08-31T05:53:34.423Z,14.93
2022-08-31T05:54:31.770Z,14.90
2022-08-31T05:55:32.440Z,14.94
2022-08-31T05:56:31.766Z,14.90
2022-08-31T05:57:31.732Z,14.91
2022-08-31T05:58:31.724Z,14.90
2022-08-31T05:59:32.411Z,14.90
2022-08-31T06:00:31.697Z,14.95
2022-08-31T06:01:31.714Z,14.87
2022-08-31T06:02:31.684Z,14.95
2022-08-31T06:03:31.655Z,14.87
2022-08-31T06:04:31.651Z,14.95
2022-08-31T06:05:31.719Z,15.00
2022-08-31T06:06:34.914Z,14.97
2022-08-31T06:07:32.919Z,14.90
2022-08-31T06:08:31.599Z,15.04
2022-08-31T06:09:31.602Z,15.00
2022-08-31T06:10:38.414Z,15.04
2022-08-31T06:11:32.450Z,15.00
2022-08-31T06:12:31.561Z,15.01
2022-08-31T06:13:31.570Z,14.98
2022-08-31T06:14:31.530Z,14.98
2022-08-31T06:15:31.535Z,15.00
2022-08-31T06:16:31.540Z,15.01
2022-08-31T06:17:31.511Z,15.16
2022-08-31T06:18:31.492Z,15.16
2022-08-31T06:19:31.544Z,15.13
2022-08-31T06:20:31.482Z,15.22
2022-08-31T06:21:31.469Z,15.18
2022-08-31T06:22:32.415Z,15.15
2022-08-31T06:23:31.441Z,15.13
2022-08-31T06:24:31.439Z,15.19
2022-08-31T06:25:31.420Z,15.22
2022-08-31T06:26:37.921Z,15.30
2022-08-31T06:27:33.923Z,15.44
2022-08-31T06:28:31.377Z,15.40
2022-08-31T06:29:31.784Z,15.41
2022-08-31T06:30:31.452Z,15.46
2022-08-31T06:31:33.993Z,15.53
2022-08-31T06:32:31.346Z,15.51
2022-08-31T06:33:31.325Z,15.59
2022-08-31T06:34:31.324Z,15.67
2022-08-31T06:35:37.920Z,15.70
2022-08-31T06:36:31.313Z,15.78
2022-08-31T06:37:31.285Z,15.91
2022-08-31T06:38:32.847Z,15.81
2022-08-31T06:39:31.265Z,15.93
2022-08-31T06:40:31.362Z,15.98
2022-08-31T06:41:36.203Z,16.03
2022-08-31T06:42:32.255Z,16.16
2022-08-31T06:43:31.214Z,16.29
2022-08-31T06:44:31.214Z,16.26
2022-08-31T06:45:31.205Z,16.34
2022-08-31T06:46:37.947Z,16.37
2022-08-31T06:47:31.165Z,16.41
2022-08-31T06:48:31.183Z,16.48
2022-08-31T06:49:31.226Z,16.45
2022-08-31T06:50:31.138Z,16.42
2022-08-31T06:51:31.133Z,16.41
2022-08-31T06:52:32.359Z,16.42
2022-08-31T06:53:31.926Z,16.40
2022-08-31T06:54:31.951Z,16.45
2022-08-31T06:55:31.104Z,16.65
2022-08-31T06:56:31.067Z,16.59
2022-08-31T06:57:31.067Z,16.57
2022-08-31T06:58:31.040Z,16.66
2022-08-31T06:59:31.442Z,16.67
2022-08-31T07:00:31.938Z,16.70
2022-08-31T07:01:38.040Z,16.78
2022-08-31T07:02:32.058Z,16.73
2022-08-31T07:03:36.454Z,16.84
2022-08-31T07:04:30.977Z,16.81
2022-08-31T07:05:30.965Z,16.81
2022-08-31T07:06:30.995Z,16.80
2022-08-31T07:07:37.915Z,16.87
2022-08-31T07:08:31.932Z,17.02
2022-08-31T07:09:31.427Z,16.99
2022-08-31T07:10:33.427Z,16.95
2022-08-31T07:11:31.423Z,16.98
2022-08-31T07:12:30.913Z,17.02
2022-08-31T07:13:37.426Z,17.05
2022-08-31T07:14:33.417Z,17.06
2022-08-31T07:15:30.855Z,17.14
2022-08-31T07:16:30.918Z,17.12
2022-08-31T07:17:30.845Z,17.07
2022-08-31T07:18:33.434Z,17.17
2022-08-31T07:19:31.427Z,17.15
2022-08-31T07:20:30.806Z,17.18
2022-08-31T07:21:30.800Z,17.20
2022-08-31T07:22:30.796Z,17.21
2022-08-31T07:23:30.778Z,17.28
2022-08-31T07:24:30.803Z,17.27
2022-08-31T07:25:30.747Z,17.32
2022-08-31T07:26:34.493Z,17.28
2022-08-31T07:27:31.749Z,17.33
2022-08-31T07:28:30.715Z,17.38
2022-08-31T07:29:30.706Z,17.38
2022-08-31T07:30:33.429Z,17.40
2022-08-31T07:31:30.678Z,17.45
2022-08-31T07:32:30.687Z,17.39
2022-08-31T07:33:30.661Z,17.54
2022-08-31T07:34:30.661Z,17.43
2022-08-31T07:35:30.642Z,17.39
2022-08-31T07:36:30.624Z,17.33
2022-08-31T07:37:30.618Z,17.45
2022-08-31T07:38:32.436Z,17.49
2022-08-31T07:39:30.610Z,17.45
2022-08-31T07:40:30.673Z,17.39
2022-08-31T07:41:30.561Z,17.53
2022-08-31T07:42:30.560Z,17.42
2022-08-31T07:43:30.555Z,17.43
2022-08-31T07:44:30.534Z,17.42
2022-08-31T07:45:37.278Z,17.47
2022-08-31T07:46:34.483Z,17.42
2022-08-31T07:47:30.502Z,17.54
2022-08-31T07:48:33.444Z,17.54
2022-08-31T07:49:30.482Z,17.60
2022-08-31T07:50:31.464Z,17.39
2022-08-31T07:51:30.469Z,17.45
2022-08-31T07:52:30.454Z,17.42
2022-08-31T07:53:30.440Z,17.38
2022-08-31T07:54:30.425Z,17.39
2022-08-31T07:55:36.932Z,17.42
2022-08-31T07:56:34.190Z,17.46
2022-08-31T07:57:30.933Z,17.45
2022-08-31T07:58:30.405Z,17.49
2022-08-31T07:59:30.367Z,17.58
2022-08-31T08:00:30.362Z,17.47
2022-08-31T08:01:30.509Z,17.43
2022-08-31T08:02:31.397Z,17.42
2022-08-31T08:03:30.929Z,17.40
2022-08-31T08:04:30.325Z,17.53
2022-08-31T08:05:30.511Z,17.39
2022-08-31T08:06:32.457Z,17.53
2022-08-31T08:07:30.288Z,17.46
2022-08-31T08:08:31.821Z,17.60
2022-08-31T08:09:36.940Z,17.51
2022-08-31T08:10:32.932Z,17.47
2022-08-31T08:11:30.463Z,17.51
2022-08-31T08:12:30.226Z,17.43
2022-08-31T08:13:30.235Z,17.49
2022-08-31T08:14:30.399Z,17.47
2022-08-31T08:15:30.215Z,17.63
2022-08-31T08:16:30.271Z,17.68
2022-08-31T08:17:30.172Z,17.63
2022-08-31T08:18:30.456Z,17.68
2022-08-31T08:19:30.155Z,17.71
2022-08-31T08:20:34.273Z,17.77
2022-08-31T08:21:31.125Z,17.81
2022-08-31T08:22:50.845Z,17.77
2022-08-31T08:23:31.121Z,17.94
2022-08-31T08:24:30.095Z,17.91
2022-08-31T08:25:30.076Z,17.96
2022-08-31T08:26:30.081Z,17.96
2022-08-31T08:27:30.076Z,17.89
2022-08-31T08:28:42.853Z,17.92
2022-08-31T08:29:33.942Z,17.92
2022-08-31T08:30:30.036Z,17.96
2022-08-31T08:31:30.086Z,18.05
2022-08-31T08:32:31.978Z,18.11
2022-08-31T08:33:29.997Z,18.20
2022-08-31T08:34:32.933Z,18.26
2022-08-31T08:35:29.969Z,18.29
2022-08-31T08:36:29.972Z,18.32
2022-08-31T08:37:54.375Z,18.41
2022-08-31T08:38:30.964Z,18.44
2022-08-31T08:39:29.946Z,18.51
2022-08-31T08:40:30.043Z,18.46
2022-08-31T08:41:30.446Z,18.66
2022-08-31T08:42:29.893Z,18.75
2022-08-31T08:43:31.059Z,18.84
2022-08-31T08:44:29.870Z,18.75
2022-08-31T08:45:30.076Z,18.84
2022-08-31T08:46:35.812Z,18.84
2022-08-31T08:47:34.381Z,18.96
2022-08-31T08:48:30.830Z,18.99
2022-08-31T08:49:30.444Z,19.15
2022-08-31T08:50:29.825Z,19.24
2022-08-31T08:51:32.437Z,19.28
2022-08-31T08:52:29.785Z,19.38
2022-08-31T08:53:32.442Z,19.38
2022-08-31T08:54:29.766Z,19.50
2022-08-31T08:55:29.770Z,19.53
2022-08-31T08:56:33.845Z,19.55
2022-08-31T08:57:29.758Z,19.67
2022-08-31T08:58:30.443Z,19.68
2022-08-31T08:59:29.714Z,19.68
2022-08-31T09:00:29.718Z,19.70
2022-08-31T09:01:32.469Z,19.86
2022-08-31T09:02:29.705Z,19.87
2022-08-31T09:03:29.671Z,19.94
2022-08-31T09:04:29.666Z,19.94
2022-08-31T09:05:29.647Z,20.02
2022-08-31T09:06:32.150Z,20.01
2022-08-31T09:07:30.611Z,20.08
2022-08-31T09:08:29.997Z,19.85
2022-08-31T09:09:29.598Z,19.97
2022-08-31T09:10:32.444Z,19.62
2022-08-31T09:11:32.451Z,19.75
2022-08-31T09:12:29.575Z,19.71
2022-08-31T09:13:29.536Z,19.68
2022-08-31T09:14:29.586Z,19.71
2022-08-31T09:15:29.524Z,19.64
2022-08-31T09:16:29.566Z,19.64
2022-08-31T09:17:51.444Z,19.76
2022-08-31T09:18:29.489Z,19.85
2022-08-31T09:19:29.480Z,20.00
2022-08-31T09:20:31.467Z,19.94
2022-08-31T09:21:29.494Z,19.90
2022-08-31T09:22:29.966Z,19.90
2022-08-31T09:23:29.474Z,19.92
2022-08-31T09:24:29.422Z,19.98
2022-08-31T09:25:29.417Z,20.04
2022-08-31T09:26:29.394Z,20.15
2022-08-31T09:27:29.960Z,20.16
2022-08-31T09:28:29.381Z,20.13
2022-08-31T09:29:29.471Z,20.19
2022-08-31T09:30:29.951Z,20.04
2022-08-31T09:31:29.408Z,19.92
2022-08-31T09:32:29.354Z,19.92
2022-08-31T09:33:29.337Z,19.94
2022-08-31T09:34:29.304Z,19.98
2022-08-31T09:35:29.290Z,19.94
2022-08-31T09:36:29.294Z,20.02
2022-08-31T09:37:29.277Z,20.02
2022-08-31T09:38:29.287Z,19.97
2022-08-31T09:39:29.247Z,20.13
2022-08-31T09:40:30.298Z,20.26
2022-08-31T09:41:29.945Z,20.38
2022-08-31T09:42:29.222Z,20.44
2022-08-31T09:43:35.947Z,20.48
2022-08-31T09:44:29.491Z,20.48
2022-08-31T09:45:29.223Z,20.57
2022-08-31T09:46:35.942Z,20.53
2022-08-31T09:47:29.169Z,20.54
2022-08-31T09:48:29.951Z,20.50
2022-08-31T09:49:29.137Z,20.68
2022-08-31T09:50:29.154Z,20.63
2022-08-31T09:51:29.984Z,20.79
2022-08-31T09:52:29.102Z,20.78
2022-08-31T09:53:29.098Z,20.78
2022-08-31T09:54:50.953Z,20.88
2022-08-31T09:56:40.060Z,20.96
2022-08-31T09:57:42.530Z,21.01
2022-08-31T09:58:39.845Z,21.06
2022-08-31T09:59:39.820Z,21.06
2022-08-31T10:00:39.822Z,21.13
2022-08-31T10:01:39.918Z,21.19
2022-08-31T10:02:39.778Z,21.24
2022-08-31T10:03:39.781Z,21.34
2022-08-31T10:04:40.609Z,21.38
2022-08-31T10:05:39.752Z,21.37
2022-08-31T10:06:39.772Z,21.48
2022-08-31T10:07:39.746Z,21.49
2022-08-31T10:08:39.752Z,21.58
2022-08-31T10:09:39.706Z,21.51
2022-08-31T10:10:40.543Z,21.49
2022-08-31T10:11:39.686Z,21.42
2022-08-31T10:12:39.685Z,21.42
2022-08-31T10:13:39.681Z,21.37
2022-08-31T10:14:39.657Z,21.37
2022-08-31T10:15:39.777Z,21.51
2022-08-31T10:16:39.637Z,21.48
2022-08-31T10:17:39.639Z,21.61
2022-08-31T10:18:39.711Z,21.68
2022-08-31T10:19:46.536Z,21.71
2022-08-31T10:20:39.582Z,21.90
2022-08-31T10:21:39.561Z,22.02
2022-08-31T10:22:40.530Z,22.09
2022-08-31T10:23:39.563Z,22.17
2022-08-31T10:24:39.569Z,22.30
2022-08-31T10:25:39.545Z,22.45
2022-08-31T10:26:39.512Z,22.45
2022-08-31T10:27:39.535Z,22.49
2022-08-31T10:28:39.509Z,22.52
2022-08-31T10:29:39.515Z,22.44
2022-08-31T10:30:40.216Z,22.01
2022-08-31T10:31:39.480Z,21.86
2022-08-31T10:32:46.038Z,22.09
2022-08-31T10:33:39.465Z,22.27
2022-08-31T10:34:39.444Z,22.49
2022-08-31T10:35:39.563Z,22.57
2022-08-31T10:36:39.429Z,22.72
2022-08-31T10:37:39.395Z,22.88
2022-08-31T10:38:39.397Z,23.06
2022-08-31T10:39:39.380Z,23.31
2022-08-31T10:40:39.690Z,23.41
2022-08-31T10:41:39.373Z,23.39
2022-08-31T10:42:39.342Z,23.47
2022-08-31T10:43:39.335Z,23.47
2022-08-31T10:44:39.322Z,23.52
2022-08-31T10:50:51.086Z,23.31
2022-08-31T10:51:22.949Z,23.32
2022-08-31T10:52:22.940Z,23.21
2022-08-31T10:53:22.963Z,23.34
2022-08-31T10:54:22.932Z,23.38
2022-08-31T10:55:22.898Z,23.37
2022-08-31T10:56:24.063Z,23.21
2022-08-31T10:57:25.913Z,23.23
2022-08-31T10:58:23.702Z,23.31
2022-08-31T10:59:22.882Z,23.41
2022-08-31T11:00:22.857Z,23.39
2022-08-31T11:01:23.707Z,23.54
2022-08-31T11:02:22.839Z,23.64
2022-08-31T11:03:25.668Z,23.77
2022-08-31T11:04:22.943Z,23.22
2022-08-31T11:05:22.803Z,23.32
2022-08-31T11:06:22.790Z,23.49
2022-08-31T11:07:25.649Z,23.71
2022-08-31T11:08:22.764Z,23.92
2022-08-31T11:09:23.650Z,24.02
2022-08-31T11:10:22.749Z,24.24
2022-08-31T11:11:22.765Z,24.41
2022-08-31T11:12:22.729Z,24.59
2022-08-31T11:13:22.749Z,24.83
2022-08-31T11:14:22.743Z,24.75
2022-08-31T11:15:22.684Z,24.83
2022-08-31T11:16:22.723Z,24.99
2022-08-31T11:17:22.676Z,25.07
2022-08-31T11:18:22.659Z,25.19
2022-08-31T11:19:22.673Z,25.24
2022-08-31T11:20:22.628Z,25.35
2022-08-31T11:21:22.637Z,25.17
2022-08-31T11:22:23.142Z,25.16
2022-08-31T11:23:23.631Z,25.16
2022-08-31T11:24:22.632Z,25.07
2022-08-31T11:25:22.607Z,24.90
2022-08-31T11:26:22.595Z,24.71
2022-08-31T11:27:22.558Z,24.51
2022-08-31T11:28:22.577Z,24.48
2022-08-31T11:29:22.530Z,24.61
2022-08-31T11:30:22.523Z,24.66
2022-08-31T11:31:22.541Z,24.59
2022-08-31T11:32:22.503Z,24.68
2022-08-31T11:33:23.149Z,24.63
2022-08-31T11:34:22.480Z,24.77
2022-08-31T11:35:22.475Z,24.63
2022-08-31T11:36:22.458Z,24.53
2022-08-31T11:37:22.459Z,24.49
2022-08-31T11:38:22.414Z,24.45
2022-08-31T11:39:22.428Z,24.39
2022-08-31T11:40:22.454Z,24.30
2022-08-31T11:41:22.411Z,24.23
2022-08-31T11:42:22.388Z,24.26
2022-08-31T11:43:22.409Z,24.16
2022-08-31T11:44:22.372Z,24.14
2022-08-31T11:45:22.359Z,24.02
2022-08-31T11:46:22.439Z,23.94
2022-08-31T11:47:22.350Z,23.68
2022-08-31T11:48:22.329Z,23.37
2022-08-31T11:49:22.317Z,23.21
2022-08-31T11:50:22.320Z,23.21
2022-08-31T11:51:22.285Z,23.29
2022-08-31T11:52:22.305Z,23.41
2022-08-31T11:53:22.280Z,23.22
2022-08-31T11:54:22.255Z,23.04
2022-08-31T11:55:22.258Z,23.25
2022-08-31T11:56:22.255Z,23.47
2022-08-31T11:57:22.273Z,23.67
2022-08-31T11:58:22.212Z,23.97
2022-08-31T11:59:22.198Z,24.09
2022-08-31T12:00:22.192Z,24.33
2022-08-31T12:01:22.177Z,24.59
2022-08-31T12:02:22.216Z,24.84
2022-08-31T12:03:22.186Z,25.11
2022-08-31T12:04:22.254Z,25.31
2022-08-31T12:05:22.161Z,25.14
2022-08-31T12:06:28.668Z,24.77
2022-08-31T12:07:22.123Z,24.75
2022-08-31T12:08:22.116Z,24.80
2022-08-31T12:09:22.109Z,24.86
2022-08-31T12:10:26.675Z,24.90
2022-08-31T12:11:25.661Z,24.64
2022-08-31T12:12:22.139Z,24.61
2022-08-31T12:13:36.668Z,24.93
2022-08-31T12:14:24.706Z,24.98
2022-08-31T12:15:24.603Z,24.98
2022-08-31T12:16:36.688Z,24.94
2022-08-31T12:17:22.814Z,25.19
2022-08-31T12:18:21.998Z,25.39
2022-08-31T12:19:21.993Z,25.56
2022-08-31T12:20:21.977Z,25.64
2022-08-31T12:21:21.954Z,25.60
2022-08-31T12:22:21.971Z,25.39
2022-08-31T12:23:30.644Z,25.08
2022-08-31T12:24:23.005Z,25.12
2022-08-31T12:25:21.927Z,25.38
2022-08-31T12:26:21.920Z,25.41
2022-08-31T12:27:21.902Z,25.64
2022-08-31T12:28:23.055Z,25.66
2022-08-31T12:29:22.870Z,25.90
2022-08-31T12:30:21.888Z,26.01
2022-08-31T12:31:21.960Z,26.11
2022-08-31T12:32:21.859Z,25.86
2022-08-31T12:33:28.657Z,25.89
2022-08-31T12:34:23.693Z,25.94
2022-08-31T12:35:21.809Z,26.12
2022-08-31T12:36:22.674Z,26.28
2022-08-31T12:37:21.790Z,26.53
2022-08-31T12:38:21.788Z,26.69
2022-08-31T12:39:22.670Z,26.31
2022-08-31T12:40:21.882Z,26.03
2022-08-31T12:41:25.269Z,25.78
2022-08-31T12:42:21.742Z,25.60
2022-08-31T12:43:21.809Z,25.38
2022-08-31T12:44:21.744Z,25.14
2022-08-31T12:45:21.717Z,25.29
2022-08-31T12:46:21.762Z,25.46
2022-08-31T12:47:24.125Z,25.41
2022-08-31T12:48:21.685Z,25.57
2022-08-31T12:49:21.665Z,25.59
2022-08-31T12:50:24.179Z,25.69
2022-08-31T12:51:21.666Z,25.48
2022-08-31T12:52:21.654Z,25.81
2022-08-31T12:53:22.176Z,25.78
2022-08-31T12:54:22.196Z,26.08
2022-08-31T12:55:21.598Z,26.12
2022-08-31T12:56:21.603Z,26.21
2022-08-31T12:57:26.993Z,26.29
2022-08-31T12:58:22.598Z,26.13